Time;durP1;ratioP1;P1;durP2;ratioP2;P2;SDS_P1;SDS_P2;PMS_P1;PMS_P2;Temp;Humidity;BMP_temperature;BMP_pressure;BME280_temperature;BME280_humidity;BME280_pressure;Samples;Min_cycle;Max_cycle;Signal;HPM_P1;HPM_P2
2022/11/28 00:01:42;;;;;;;21.92;15.68;;;3.30;99.90;;;;;;4996090;28;20316;-69
2022/11/28 00:04:08;;;;;;;21.02;14.75;;;3.30;99.90;;;;;;4995230;28;20693;-69
2022/11/28 00:06:44;;;;;;;20.35;15.30;;;3.30;99.90;;;;;;4994320;28;20217;-71
2022/11/28 00:09:10;;;;;;;21.05;14.80;;;3.20;99.90;;;;;;4993507;28;20325;-69
2022/11/28 00:11:37;;;;;;;18.80;14.27;;;3.20;99.90;;;;;;4993591;28;20189;-69
2022/11/28 00:14:03;;;;;;;20.08;15.30;;;3.20;99.90;;;;;;4999357;28;20269;-69
2022/11/28 00:16:28;;;;;;;24.45;15.75;;;3.20;99.90;;;;;;4990359;28;20632;-70
2022/11/28 00:18:54;;;;;;;23.42;15.02;;;3.20;99.90;;;;;;5005443;28;20678;-71
2022/11/28 00:21:21;;;;;;;22.20;14.77;;;3.20;99.90;;;;;;4993644;28;20701;-69
2022/11/28 00:23:48;;;;;;;23.70;14.85;;;3.30;99.90;;;;;;4991223;28;20185;-69
2022/11/28 00:26:20;;;;;;;22.67;15.15;;;3.20;99.90;;;;;;4993689;28;20208;-69
2022/11/28 00:28:46;;;;;;;20.90;15.48;;;3.20;99.90;;;;;;4992378;28;20574;-69
2022/11/28 00:31:21;;;;;;;21.60;15.43;;;3.20;99.90;;;;;;4990004;28;20208;-69
2022/11/28 00:33:47;;;;;;;22.33;15.27;;;3.20;99.90;;;;;;4985403;28;20609;-70
2022/11/28 00:36:14;;;;;;;21.80;14.98;;;3.30;99.90;;;;;;4999230;28;20249;-70
2022/11/28 00:38:40;;;;;;;21.52;14.65;;;3.30;99.90;;;;;;4988826;28;20646;-69
2022/11/28 00:41:17;;;;;;;24.20;14.90;;;3.30;99.90;;;;;;4990236;28;20212;-70
2022/11/28 00:43:44;;;;;;;21.65;14.65;;;3.30;99.90;;;;;;4990645;28;20203;-70
2022/11/28 00:46:12;;;;;;;21.67;14.10;;;3.20;99.90;;;;;;4993741;28;20198;-69
2022/11/28 00:48:38;;;;;;;21.92;14.93;;;3.20;99.90;;;;;;4992395;28;20174;-69
2022/11/28 00:51:09;;;;;;;20.73;14.30;;;3.30;99.90;;;;;;4997464;28;20183;-70
2022/11/28 00:53:35;;;;;;;19.33;14.23;;;3.30;99.90;;;;;;5003046;28;20178;-69
2022/11/28 00:56:04;;;;;;;21.92;13.90;;;3.30;99.90;;;;;;4993523;28;20630;-72
2022/11/28 00:58:31;;;;;;;20.17;14.07;;;3.30;99.90;;;;;;4994884;28;20611;-69
2022/11/28 01:00:57;;;;;;;19.70;13.43;;;3.30;99.90;;;;;;4992827;28;20202;-69
2022/11/28 01:03:22;;;;;;;24.02;15.70;;;3.40;99.90;;;;;;4993714;28;20228;-70
2022/11/28 01:05:48;;;;;;;19.52;13.85;;;3.40;99.90;;;;;;4993253;28;20569;-70
2022/11/28 01:08:14;;;;;;;22.90;14.25;;;3.40;99.90;;;;;;4993359;28;20273;-71
2022/11/28 01:10:41;;;;;;;20.15;14.90;;;3.40;99.90;;;;;;4996968;28;20178;-69
2022/11/28 01:13:07;;;;;;;21.27;14.10;;;3.40;99.90;;;;;;4980547;28;20182;-70
2022/11/28 01:15:33;;;;;;;18.92;14.20;;;3.40;99.90;;;;;;5006293;28;20205;-69
2022/11/28 01:18:00;;;;;;;20.38;15.50;;;3.40;99.90;;;;;;4999326;28;20184;-69
2022/11/28 01:20:25;;;;;;;18.55;13.95;;;3.30;99.90;;;;;;4993462;28;20204;-69
2022/11/28 01:22:51;;;;;;;18.05;13.45;;;3.30;99.90;;;;;;4987141;28;20544;-70
2022/11/28 01:25:16;;;;;;;22.27;14.65;;;3.30;99.90;;;;;;5005549;28;20251;-75
2022/11/28 01:27:42;;;;;;;18.95;13.82;;;3.30;99.90;;;;;;4993012;28;20174;-72
2022/11/28 01:30:08;;;;;;;21.27;13.85;;;3.30;99.90;;;;;;4990343;28;20183;-69
2022/11/28 01:32:33;;;;;;;17.33;13.30;;;3.40;99.90;;;;;;4998633;28;20190;-69
2022/11/28 01:34:59;;;;;;;20.42;14.13;;;3.40;99.90;;;;;;4994010;28;20225;-69
2022/11/28 01:37:24;;;;;;;19.52;13.60;;;3.40;99.90;;;;;;4994849;28;20174;-71
2022/11/28 01:39:50;;;;;;;18.55;13.98;;;3.40;99.90;;;;;;4990136;28;20186;-69
2022/11/28 01:42:17;;;;;;;21.48;14.55;;;3.40;99.90;;;;;;4999022;28;20215;-69
2022/11/28 01:44:49;;;;;;;18.58;13.68;;;3.40;99.90;;;;;;4984562;28;20268;-70
2022/11/28 01:47:18;;;;;;;18.70;13.90;;;3.40;99.90;;;;;;4992545;28;20579;-71
2022/11/28 01:49:45;;;;;;;18.08;13.13;;;3.40;99.90;;;;;;4992301;28;20187;-69
2022/11/28 01:52:14;;;;;;;19.98;13.68;;;3.30;99.90;;;;;;4992225;28;20208;-72
2022/11/28 01:54:43;;;;;;;18.33;14.52;;;3.30;99.90;;;;;;5000069;28;20173;-69
2022/11/28 01:57:14;;;;;;;17.52;13.35;;;3.20;99.90;;;;;;4989272;28;20182;-69
2022/11/28 01:59:45;;;;;;;18.48;14.27;;;3.10;99.90;;;;;;5007627;28;20216;-69
2022/11/28 02:02:17;;;;;;;17.15;13.32;;;3.10;99.90;;;;;;4995483;28;20237;-70
2022/11/28 02:04:45;;;;;;;23.40;14.57;;;3.10;99.90;;;;;;4987284;28;20213;-69
2022/11/28 02:07:11;;;;;;;16.55;13.23;;;3.00;99.90;;;;;;4991512;28;20588;-68
2022/11/28 02:09:37;;;;;;;16.30;12.20;;;3.00;99.90;;;;;;4996407;28;20209;-69
2022/11/28 02:12:14;;;;;;;19.23;13.30;;;3.00;99.90;;;;;;4993287;28;20190;-69
2022/11/28 02:15:11;;;;;;;17.88;13.90;;;2.90;99.90;;;;;;4998026;28;20187;-71
2022/11/28 02:17:43;;;;;;;21.58;15.10;;;2.90;99.90;;;;;;4989930;28;20185;-69
2022/11/28 02:20:38;;;;;;;22.60;16.00;;;2.90;99.90;;;;;;4989587;28;20182;-69
2022/11/28 02:23:30;;;;;;;20.05;13.35;;;2.90;99.90;;;;;;4985709;28;20186;-69
2022/11/28 02:26:13;;;;;;;19.88;14.00;;;3.00;99.90;;;;;;4990542;28;20750;-70
2022/11/28 02:28:55;;;;;;;17.23;13.45;;;3.00;99.90;;;;;;4988181;28;20170;-71
2022/11/28 02:31:49;;;;;;;17.70;14.38;;;3.00;99.90;;;;;;4987017;28;20220;-70
2022/11/28 02:34:32;;;;;;;19.40;14.05;;;3.00;99.90;;;;;;4991093;28;20241;-70
2022/11/28 02:37:30;;;;;;;19.52;15.38;;;3.00;99.90;;;;;;4978059;28;20180;-69
2022/11/28 02:40:06;;;;;;;21.02;15.88;;;3.10;99.90;;;;;;4980977;28;20180;-72
2022/11/28 02:42:46;;;;;;;23.08;15.85;;;3.10;99.90;;;;;;4991967;28;20239;-69
2022/11/28 02:45:26;;;;;;;19.77;15.07;;;3.10;99.90;;;;;;4981511;28;20622;-70
2022/11/28 02:48:05;;;;;;;21.60;15.98;;;3.10;99.90;;;;;;4987905;28;20212;-69
2022/11/28 02:50:41;;;;;;;23.38;16.77;;;3.20;99.90;;;;;;4990525;28;20173;-69
2022/11/28 02:53:18;;;;;;;19.83;15.18;;;3.20;99.90;;;;;;4986628;28;20182;-70
2022/11/28 02:55:44;;;;;;;22.25;15.82;;;3.20;99.90;;;;;;4981822;28;20532;-69
2022/11/28 02:58:11;;;;;;;19.45;15.13;;;3.20;99.90;;;;;;4991802;28;20229;-70
2022/11/28 03:00:42;;;;;;;22.80;15.80;;;3.10;99.90;;;;;;4992015;28;20574;-70
2022/11/28 03:03:23;;;;;;;22.75;16.30;;;3.10;99.90;;;;;;4990463;28;20265;-69
2022/11/28 03:06:21;;;;;;;19.63;15.20;;;3.20;99.90;;;;;;5005502;28;20208;-69
2022/11/28 03:08:59;;;;;;;19.85;15.43;;;3.10;99.90;;;;;;4984686;28;20246;-69
2022/11/28 03:11:45;;;;;;;20.13;14.40;;;3.10;99.90;;;;;;4989421;28;20188;-69
2022/11/28 03:14:30;;;;;;;19.85;14.48;;;3.20;99.90;;;;;;4991543;28;20182;-70
2022/11/28 03:17:10;;;;;;;19.77;14.63;;;3.00;99.90;;;;;;4991746;28;20256;-69
2022/11/28 03:19:43;;;;;;;21.23;14.25;;;3.20;99.90;;;;;;4999589;28;20248;-69
2022/11/28 03:22:08;;;;;;;19.90;14.68;;;3.20;99.90;;;;;;5004029;28;20194;-69
2022/11/28 03:24:45;;;;;;;22.02;15.38;;;3.20;99.90;;;;;;4992524;28;20237;-70
2022/11/28 03:27:15;;;;;;;21.45;14.88;;;3.20;99.90;;;;;;4990297;28;20177;-70
2022/11/28 03:29:47;;;;;;;20.92;16.02;;;3.20;99.90;;;;;;4992307;28;20178;-69
2022/11/28 03:32:28;;;;;;;21.20;14.95;;;3.20;99.90;;;;;;4988802;28;20228;-69
2022/11/28 03:35:00;;;;;;;23.40;15.05;;;3.20;99.90;;;;;;4997348;28;20284;-72
2022/11/28 03:37:31;;;;;;;18.52;14.27;;;3.20;99.90;;;;;;4998234;28;20178;-72
2022/11/28 03:40:02;;;;;;;22.48;14.38;;;3.10;99.90;;;;;;5002989;28;20181;-69
2022/11/28 03:42:31;;;;;;;18.88;14.27;;;3.10;99.90;;;;;;4994297;28;20275;-69
2022/11/28 03:45:12;;;;;;;17.63;13.65;;;3.10;99.90;;;;;;5000739;28;20194;-70
2022/11/28 03:47:42;;;;;;;17.67;14.55;;;3.10;99.90;;;;;;4994248;28;20170;-69
2022/11/28 03:50:18;;;;;;;19.15;13.75;;;3.10;99.90;;;;;;4994667;28;20178;-72
2022/11/28 03:52:51;;;;;;;20.77;13.43;;;3.10;99.90;;;;;;4986322;28;20280;-70
2022/11/28 03:55:26;;;;;;;19.60;14.07;;;3.00;99.90;;;;;;4998772;28;20202;-70
2022/11/28 03:58:01;;;;;;;17.92;13.85;;;3.10;99.90;;;;;;4994631;28;20641;-69
2022/11/28 04:00:27;;;;;;;19.08;13.18;;;3.00;99.90;;;;;;4994357;28;20200;-71
2022/11/28 04:03:25;;;;;;;18.42;13.55;;;3.00;99.90;;;;;;4993199;28;20182;-71
2022/11/28 04:06:14;;;;;;;18.00;13.90;;;2.90;99.90;;;;;;4985264;28;20200;-70
2022/11/28 04:08:47;;;;;;;20.20;13.57;;;2.90;99.90;;;;;;4990595;28;20649;-67
2022/11/28 04:11:18;;;;;;;17.40;13.52;;;2.90;99.90;;;;;;4984776;28;20240;-73
2022/11/28 04:14:09;;;;;;;18.02;13.23;;;2.90;99.90;;;;;;4996449;28;20228;-70
2022/11/28 04:16:47;;;;;;;22.52;14.02;;;2.90;99.90;;;;;;4974508;28;20209;-69
2022/11/28 04:19:44;;;;;;;14.68;12.23;;;2.90;99.90;;;;;;4994347;28;20178;-70
2022/11/28 04:22:20;;;;;;;19.92;12.88;;;2.90;99.90;;;;;;4981864;28;20224;-70
2022/11/28 04:25:00;;;;;;;20.38;14.30;;;2.90;99.90;;;;;;4993926;28;20236;-70
2022/11/28 04:27:40;;;;;;;15.15;12.07;;;2.90;99.90;;;;;;4992856;28;20671;-69
2022/11/28 04:30:06;;;;;;;15.50;11.50;;;2.90;99.90;;;;;;4992985;28;20548;-72
2022/11/28 04:32:36;;;;;;;17.48;12.73;;;2.90;99.90;;;;;;4994635;28;20212;-69
2022/11/28 04:35:08;;;;;;;16.42;12.32;;;2.90;99.90;;;;;;5004559;28;20236;-69
2022/11/28 04:37:36;;;;;;;15.50;12.25;;;3.00;99.90;;;;;;4990490;28;20652;-72
2022/11/28 04:40:04;;;;;;;17.63;12.60;;;3.10;99.90;;;;;;4993109;28;20221;-71
2022/11/28 04:42:35;;;;;;;21.02;13.05;;;3.20;99.90;;;;;;4993492;28;20216;-70
2022/11/28 04:45:07;;;;;;;16.70;13.45;;;3.30;99.90;;;;;;4994108;28;20224;-70
2022/11/28 04:47:33;;;;;;;17.60;13.30;;;3.20;99.90;;;;;;4988578;28;20186;-69
2022/11/28 04:49:59;;;;;;;18.45;12.63;;;3.30;99.90;;;;;;4985868;28;20192;-70
2022/11/28 04:52:35;;;;;;;17.33;12.65;;;3.50;99.90;;;;;;4992930;28;20186;-70
2022/11/28 04:55:25;;;;;;;15.82;12.85;;;3.60;99.90;;;;;;4989251;28;20256;-69
2022/11/28 04:57:58;;;;;;;15.73;12.18;;;3.60;99.90;;;;;;4984245;28;20170;-69
2022/11/28 05:00:25;;;;;;;13.02;10.10;;;3.60;99.90;;;;;;4995703;28;20182;-70
2022/11/28 05:02:53;;;;;;;16.15;11.70;;;3.60;99.90;;;;;;4988288;28;20193;-72
2022/11/28 05:05:24;;;;;;;14.35;11.43;;;3.50;99.90;;;;;;4996945;28;20695;-73
2022/11/28 05:07:51;;;;;;;12.93;10.48;;;3.30;99.90;;;;;;4995506;28;20659;-72
2022/11/28 05:10:17;;;;;;;12.82;10.13;;;3.20;99.90;;;;;;4986091;28;20548;-75
2022/11/28 05:12:42;;;;;;;15.68;11.60;;;3.20;99.90;;;;;;4994664;28;20656;-74
2022/11/28 05:15:09;;;;;;;17.25;12.15;;;3.20;99.90;;;;;;4985450;28;20210;-72
2022/11/28 05:17:35;;;;;;;18.63;11.32;;;3.20;99.90;;;;;;4989401;28;20182;-72
2022/11/28 05:20:01;;;;;;;14.25;10.68;;;3.10;99.90;;;;;;4996052;28;20239;-75
2022/11/28 05:22:26;;;;;;;13.07;10.43;;;3.10;99.90;;;;;;4989448;28;20233;-72
2022/11/28 05:24:52;;;;;;;13.85;10.65;;;3.20;99.90;;;;;;4994440;28;20208;-72
2022/11/28 05:27:17;;;;;;;13.60;11.02;;;3.10;99.90;;;;;;4991332;28;20268;-72
2022/11/28 05:29:45;;;;;;;14.50;10.88;;;3.10;99.90;;;;;;4995930;28;20190;-73
2022/11/28 05:32:11;;;;;;;14.98;10.48;;;3.10;99.90;;;;;;4992757;28;20173;-72
2022/11/28 05:34:37;;;;;;;15.43;11.05;;;3.20;99.90;;;;;;4988421;28;20248;-72
2022/11/28 05:37:03;;;;;;;15.43;10.23;;;3.10;99.90;;;;;;4992900;28;20672;-72
2022/11/28 05:39:29;;;;;;;13.45;10.30;;;3.10;99.90;;;;;;4992371;28;20308;-72
2022/11/28 05:41:55;;;;;;;10.82;9.73;;;3.00;99.90;;;;;;5002830;28;20236;-72
2022/11/28 05:44:21;;;;;;;11.15;9.95;;;3.00;99.90;;;;;;5001977;28;20196;-72
2022/11/28 05:46:47;;;;;;;11.90;10.35;;;3.10;99.90;;;;;;4985146;28;20225;-71
2022/11/28 05:49:12;;;;;;;11.48;9.52;;;3.10;99.90;;;;;;4984321;28;20182;-71
2022/11/28 05:51:38;;;;;;;13.20;10.30;;;3.10;99.90;;;;;;4984975;28;20213;-69
2022/11/28 05:54:04;;;;;;;13.43;10.27;;;3.10;99.90;;;;;;4991439;28;20182;-70
2022/11/28 05:56:29;;;;;;;13.52;9.82;;;3.10;99.90;;;;;;4996764;28;20213;-70
2022/11/28 05:58:55;;;;;;;12.48;9.38;;;3.10;99.90;;;;;;5002040;28;20718;-70
2022/11/28 06:01:24;;;;;;;12.05;9.93;;;3.10;99.90;;;;;;4994315;28;20614;-70
2022/11/28 06:03:51;;;;;;;12.15;10.65;;;3.10;99.90;;;;;;4992938;28;20184;-70
2022/11/28 06:06:21;;;;;;;14.55;10.80;;;3.00;99.90;;;;;;4990893;28;20197;-70
2022/11/28 06:08:48;;;;;;;13.20;10.15;;;3.00;99.90;;;;;;4985175;28;20170;-70
2022/11/28 06:11:15;;;;;;;12.52;10.18;;;3.00;99.90;;;;;;4997716;28;20196;-70
2022/11/28 06:13:41;;;;;;;12.20;10.40;;;3.00;99.90;;;;;;5002710;28;20670;-70
2022/11/28 06:16:12;;;;;;;12.38;9.52;;;2.90;99.90;;;;;;4993757;28;20197;-70
2022/11/28 06:18:39;;;;;;;11.93;9.38;;;2.90;99.90;;;;;;4992666;28;20697;-70
2022/11/28 06:21:06;;;;;;;10.85;9.48;;;3.00;99.90;;;;;;4992227;28;20247;-72
2022/11/28 06:23:32;;;;;;;12.75;10.38;;;3.00;99.90;;;;;;4986923;28;20182;-70
2022/11/28 06:26:13;;;;;;;14.45;10.48;;;3.10;99.90;;;;;;4993623;28;20708;-71
2022/11/28 06:28:40;;;;;;;14.27;10.48;;;3.00;99.90;;;;;;4999476;28;20208;-70
2022/11/28 06:31:11;;;;;;;11.27;9.52;;;3.00;99.90;;;;;;4995399;28;20177;-71
2022/11/28 06:33:37;;;;;;;11.68;10.15;;;3.00;99.90;;;;;;4998479;28;20283;-70
2022/11/28 06:36:04;;;;;;;13.85;11.13;;;3.10;99.90;;;;;;4991306;28;20201;-71
2022/11/28 06:38:30;;;;;;;13.93;9.95;;;3.10;99.90;;;;;;4998436;28;20196;-70
2022/11/28 06:41:02;;;;;;;14.02;10.98;;;3.20;99.90;;;;;;4991213;28;20204;-70
2022/11/28 06:43:28;;;;;;;15.75;9.98;;;3.20;99.90;;;;;;5001359;28;20251;-71
2022/11/28 06:45:54;;;;;;;10.60;9.38;;;3.20;99.90;;;;;;4985417;28;20560;-70
2022/11/28 06:48:20;;;;;;;14.98;10.43;;;3.30;99.90;;;;;;4987673;28;20261;-70
2022/11/28 06:50:47;;;;;;;13.73;9.90;;;3.20;99.90;;;;;;4992515;28;20194;-70
2022/11/28 06:53:13;;;;;;;12.23;10.15;;;3.30;99.90;;;;;;4999112;28;20179;-69
2022/11/28 06:55:39;;;;;;;10.25;9.10;;;3.40;99.90;;;;;;4996245;28;20612;-70
2022/11/28 06:58:05;;;;;;;12.32;9.48;;;3.50;99.90;;;;;;4998574;28;20590;-70
2022/11/28 07:00:31;;;;;;;11.05;9.95;;;3.50;99.90;;;;;;5000755;28;20173;-70
2022/11/28 07:02:57;;;;;;;11.65;9.50;;;3.50;99.90;;;;;;4991152;28;20200;-69
2022/11/28 07:05:26;;;;;;;12.75;10.70;;;3.50;99.90;;;;;;4993607;28;20261;-70
2022/11/28 07:07:52;;;;;;;10.93;8.80;;;3.50;99.90;;;;;;4999798;28;20181;-73
2022/11/28 07:10:18;;;;;;;10.93;8.77;;;3.50;99.90;;;;;;4995299;28;20188;-72
2022/11/28 07:12:44;;;;;;;10.43;7.88;;;3.50;99.90;;;;;;4995840;28;20209;-71
2022/11/28 07:15:10;;;;;;;10.02;8.90;;;3.50;99.90;;;;;;5003822;28;20201;-75
2022/11/28 07:17:36;;;;;;;11.38;8.88;;;3.60;99.90;;;;;;5003421;28;20857;-72
2022/11/28 07:20:02;;;;;;;11.32;8.23;;;3.60;99.90;;;;;;5002440;28;20182;-72
2022/11/28 07:22:27;;;;;;;10.65;9.23;;;3.60;99.90;;;;;;4999537;28;20742;-72
2022/11/28 07:24:53;;;;;;;11.68;9.60;;;3.50;99.90;;;;;;4994070;28;20206;-72
2022/11/28 07:27:18;;;;;;;11.57;9.40;;;3.50;99.90;;;;;;4991910;28;20665;-72
2022/11/28 07:29:44;;;;;;;10.90;8.63;;;3.50;99.90;;;;;;4988843;28;20228;-71
2022/11/28 07:32:10;;;;;;;10.70;8.45;;;3.60;99.90;;;;;;4993499;28;20236;-71
2022/11/28 07:34:36;;;;;;;11.57;9.02;;;3.70;99.90;;;;;;4994130;28;20185;-70
2022/11/28 07:37:01;;;;;;;12.82;8.60;;;3.80;99.90;;;;;;4999881;28;20186;-72
2022/11/28 07:39:27;;;;;;;9.88;8.88;;;3.80;99.90;;;;;;4996686;28;20186;-72
2022/11/28 07:41:52;;;;;;;9.20;8.30;;;3.90;99.90;;;;;;4988323;28;20249;-72
2022/11/28 07:44:18;;;;;;;10.63;8.48;;;3.90;99.90;;;;;;4996159;28;20242;-72
2022/11/28 07:46:45;;;;;;;9.93;7.88;;;3.90;99.90;;;;;;4993210;28;20723;-72
2022/11/28 07:49:14;;;;;;;10.80;9.02;;;4.00;99.90;;;;;;4986666;28;20182;-71
2022/11/28 07:51:40;;;;;;;9.60;8.10;;;4.10;99.90;;;;;;4989823;28;20185;-71
2022/11/28 07:54:06;;;;;;;9.73;8.55;;;4.20;99.90;;;;;;4991725;28;20174;-71
2022/11/28 07:56:34;;;;;;;8.23;7.30;;;4.20;99.90;;;;;;4993694;28;20287;-71
2022/11/28 07:59:01;;;;;;;11.48;7.25;;;4.20;99.90;;;;;;4996702;28;20212;-70
2022/11/28 08:01:29;;;;;;;9.90;8.30;;;4.10;99.90;;;;;;4994069;28;20202;-70
2022/11/28 08:03:56;;;;;;;10.52;7.47;;;4.00;99.90;;;;;;4996659;28;20185;-69
2022/11/28 08:06:24;;;;;;;9.05;8.15;;;4.10;99.90;;;;;;4996283;28;20213;-69
2022/11/28 08:08:51;;;;;;;11.20;7.95;;;4.10;99.90;;;;;;4997405;28;20545;-69
2022/11/28 08:11:18;;;;;;;10.10;8.60;;;4.20;99.90;;;;;;4993290;28;20268;-71
2022/11/28 08:13:44;;;;;;;10.65;8.73;;;4.30;99.90;;;;;;4995523;28;20317;-71
2022/11/28 08:16:19;;;;;;;10.52;8.70;;;4.30;99.90;;;;;;4994512;28;20285;-70
2022/11/28 08:18:45;;;;;;;10.65;9.10;;;4.30;99.90;;;;;;5002994;28;20200;-71
2022/11/28 08:21:16;;;;;;;11.98;9.65;;;4.20;99.90;;;;;;4993331;28;20232;-70
2022/11/28 08:23:44;;;;;;;10.68;9.15;;;4.10;99.90;;;;;;4985607;28;20202;-71
2022/11/28 08:26:12;;;;;;;10.80;8.98;;;4.10;99.90;;;;;;4993826;28;20664;-71
2022/11/28 08:28:38;;;;;;;12.95;9.25;;;4.10;99.90;;;;;;4994362;28;20705;-71
2022/11/28 08:31:16;;;;;;;12.00;10.32;;;4.20;99.90;;;;;;4995392;28;20265;-70
2022/11/28 08:33:43;;;;;;;11.93;10.07;;;4.20;99.90;;;;;;4993590;28;20170;-71
2022/11/28 08:36:11;;;;;;;11.13;9.93;;;4.10;99.90;;;;;;4995517;28;20272;-71
2022/11/28 08:38:37;;;;;;;11.35;9.10;;;4.20;99.90;;;;;;4984015;28;20692;-71
2022/11/28 08:41:05;;;;;;;12.07;9.88;;;4.40;99.90;;;;;;4993594;28;20217;-74
2022/11/28 08:43:30;;;;;;;10.00;9.00;;;4.50;99.90;;;;;;4982916;28;20189;-75
2022/11/28 08:45:56;;;;;;;13.65;10.40;;;4.40;99.90;;;;;;4985312;28;20288;-74
2022/11/28 08:48:22;;;;;;;10.40;9.30;;;4.30;99.90;;;;;;4993586;28;20248;-70
2022/11/28 08:50:48;;;;;;;9.98;8.98;;;4.50;99.90;;;;;;4995389;28;20186;-70
2022/11/28 08:53:14;;;;;;;11.70;10.43;;;4.60;99.90;;;;;;4982706;28;20597;-70
2022/11/28 08:55:43;;;;;;;11.18;9.30;;;4.70;99.90;;;;;;5005705;28;20202;-71
2022/11/28 08:58:12;;;;;;;11.35;9.88;;;4.80;99.90;;;;;;4993147;28;20210;-72
2022/11/28 09:00:39;;;;;;;9.82;8.80;;;4.80;99.90;;;;;;4997415;28;20679;-71
2022/11/28 09:03:04;;;;;;;11.63;9.45;;;5.10;99.90;;;;;;4994507;28;20232;-70
2022/11/28 09:05:31;;;;;;;10.05;9.00;;;5.20;99.90;;;;;;4997898;28;20231;-70
2022/11/28 09:07:57;;;;;;;11.45;8.95;;;5.30;99.90;;;;;;4997846;28;20186;-73
2022/11/28 09:10:23;;;;;;;10.40;8.63;;;5.50;99.90;;;;;;4985627;28;20200;-69
2022/11/28 09:12:50;;;;;;;10.93;8.73;;;5.60;99.90;;;;;;4994522;28;20676;-71
2022/11/28 09:15:17;;;;;;;10.98;9.88;;;5.70;99.90;;;;;;5001030;28;20706;-69
2022/11/28 09:17:44;;;;;;;10.60;9.32;;;5.70;99.90;;;;;;4991181;28;20233;-71
2022/11/28 09:20:10;;;;;;;8.88;8.02;;;5.60;99.90;;;;;;4994119;28;20431;-72
2022/11/28 09:22:35;;;;;;;9.63;8.35;;;5.70;99.90;;;;;;4998563;28;20237;-74
2022/11/28 09:25:01;;;;;;;11.75;9.43;;;5.90;99.90;;;;;;4998253;28;20221;-73
2022/11/28 09:27:27;;;;;;;10.95;8.32;;;6.00;99.90;;;;;;4994653;28;20186;-74
2022/11/28 09:29:52;;;;;;;10.50;8.63;;;6.10;99.90;;;;;;4988208;28;20210;-74
2022/11/28 09:32:18;;;;;;;10.55;9.40;;;6.10;99.90;;;;;;4988847;28;20280;-74
2022/11/28 09:34:43;;;;;;;11.57;9.88;;;6.00;99.90;;;;;;4992130;28;20661;-74
2022/11/28 09:37:09;;;;;;;9.32;8.35;;;6.10;99.90;;;;;;4986710;28;20182;-73
2022/11/28 09:39:35;;;;;;;11.10;9.48;;;6.00;99.90;;;;;;4990843;28;20182;-74
2022/11/28 09:42:25;;;;;;;11.73;8.60;;;6.00;99.90;;;;;;4992929;28;20245;-75
2022/11/28 09:45:17;;;;;;;10.00;8.63;;;6.10;99.90;;;;;;4985880;28;20209;-73
2022/11/28 09:47:48;;;;;;;9.65;8.48;;;6.20;99.90;;;;;;4989180;28;20186;-73
2022/11/28 09:50:19;;;;;;;11.05;9.82;;;6.40;99.90;;;;;;4994612;28;20197;-73
2022/11/28 09:52:48;;;;;;;9.43;8.38;;;6.50;99.90;;;;;;4989831;28;20185;-76
2022/11/28 09:55:28;;;;;;;9.65;8.65;;;6.60;99.90;;;;;;4989680;28;20221;-74
2022/11/28 09:57:54;;;;;;;11.55;8.98;;;6.70;99.90;;;;;;4987322;28;20204;-73
2022/11/28 10:00:22;;;;;;;10.10;8.57;;;6.70;99.90;;;;;;4987226;28;20585;-74
2022/11/28 10:03:07;;;;;;;10.73;8.75;;;6.70;99.90;;;;;;4984886;28;20317;-74
2022/11/28 10:05:39;;;;;;;9.85;8.77;;;6.80;99.90;;;;;;4996218;28;20679;-74
2022/11/28 10:08:30;;;;;;;10.80;8.65;;;6.80;99.90;;;;;;4993332;28;20223;-73
2022/11/28 10:11:18;;;;;;;9.55;7.38;;;6.70;99.90;;;;;;4985191;28;20229;-74
2022/11/28 10:13:54;;;;;;;10.40;8.45;;;6.70;99.90;;;;;;4962129;28;20232;-75
2022/11/28 10:16:34;;;;;;;11.63;8.20;;;6.90;99.90;;;;;;4999232;28;20584;-74
2022/11/28 10:19:07;;;;;;;11.20;8.65;;;6.90;99.90;;;;;;4992525;28;20178;-74
2022/11/28 10:21:41;;;;;;;9.68;8.77;;;6.90;99.90;;;;;;4991006;28;20567;-74
2022/11/28 10:24:19;;;;;;;9.77;7.63;;;6.90;99.90;;;;;;4992552;28;20174;-74
2022/11/28 10:26:53;;;;;;;9.13;7.25;;;7.00;99.90;;;;;;4984565;28;20568;-73
2022/11/28 10:29:55;;;;;;;8.90;8.00;;;7.20;99.90;;;;;;4989517;28;20181;-73
2022/11/28 10:32:31;;;;;;;8.80;7.78;;;7.30;99.90;;;;;;4992752;28;20197;-73
2022/11/28 10:35:03;;;;;;;8.10;7.15;;;7.50;99.90;;;;;;5000691;28;20205;-74
2022/11/28 10:37:30;;;;;;;9.75;7.63;;;7.70;99.90;;;;;;4991859;28;20178;-74
2022/11/28 10:40:14;;;;;;;7.53;6.82;;;7.80;99.90;;;;;;4994284;28;20182;-74
2022/11/28 10:42:55;;;;;;;8.80;8.00;;;8.00;99.90;;;;;;4998060;28;20569;-74
2022/11/28 10:45:34;;;;;;;8.23;7.40;;;8.10;99.90;;;;;;4991568;28;20189;-73
2022/11/28 10:48:03;;;;;;;8.30;7.53;;;8.40;99.90;;;;;;4992116;28;20200;-76
2022/11/28 10:50:54;;;;;;;8.38;7.53;;;8.40;99.90;;;;;;5000800;28;20173;-74
2022/11/28 10:53:25;;;;;;;7.90;7.07;;;8.40;99.90;;;;;;4998245;28;20178;-74
2022/11/28 10:56:00;;;;;;;8.95;7.93;;;8.30;99.90;;;;;;5004427;28;20216;-74
2022/11/28 10:58:43;;;;;;;8.43;7.40;;;8.50;99.90;;;;;;5001410;28;20185;-73
2022/11/28 11:01:10;;;;;;;7.72;7.03;;;8.40;99.90;;;;;;4996916;28;20189;-74
2022/11/28 11:03:38;;;;;;;9.35;7.50;;;8.50;99.90;;;;;;4993422;28;20173;-73
2022/11/28 11:06:04;;;;;;;8.52;7.70;;;8.40;99.90;;;;;;4993612;28;20207;-73
2022/11/28 11:08:34;;;;;;;9.52;7.80;;;8.50;99.90;;;;;;5000646;28;20227;-74
2022/11/28 11:11:26;;;;;;;9.00;7.30;;;8.70;99.90;;;;;;5002090;28;20177;-73
2022/11/28 11:14:08;;;;;;;8.30;7.47;;;8.70;99.90;;;;;;4990944;28;20182;-76
2022/11/28 11:16:52;;;;;;;8.27;7.03;;;8.60;99.90;;;;;;5000859;28;20727;-77
2022/11/28 11:19:29;;;;;;;8.18;7.38;;;8.50;99.90;;;;;;4983084;28;20187;-76
2022/11/28 11:22:02;;;;;;;7.97;7.18;;;8.70;99.90;;;;;;4991777;28;20220;-76
2022/11/28 11:24:28;;;;;;;8.70;7.93;;;8.60;99.90;;;;;;4991355;28;20214;-76
2022/11/28 11:27:13;;;;;;;7.93;7.13;;;8.80;99.90;;;;;;4991151;28;20229;-76
2022/11/28 11:29:39;;;;;;;7.57;6.80;;;8.90;99.90;;;;;;4991567;28;20190;-77
2022/11/28 11:32:16;;;;;;;8.73;7.93;;;8.90;99.90;;;;;;4984844;28;20705;-76
2022/11/28 11:34:44;;;;;;;8.80;7.72;;;8.90;99.90;;;;;;4986682;28;20231;-76
2022/11/28 11:37:19;;;;;;;8.45;7.65;;;9.00;99.90;;;;;;4987742;28;20281;-76
2022/11/28 11:39:52;;;;;;;8.93;7.35;;;8.90;99.90;;;;;;4984112;28;20664;-77
2022/11/28 11:42:23;;;;;;;8.35;7.63;;;8.90;99.90;;;;;;4995402;28;20213;-77
2022/11/28 11:44:49;;;;;;;8.68;7.88;;;8.90;99.90;;;;;;4991080;28;20542;-77
2022/11/28 11:47:15;;;;;;;9.10;8.20;;;8.80;99.90;;;;;;4986704;28;20190;-76
2022/11/28 11:49:44;;;;;;;7.97;7.18;;;8.70;99.90;;;;;;5002972;28;20641;-76
2022/11/28 11:52:23;;;;;;;9.00;8.00;;;8.90;99.90;;;;;;4989359;28;20178;-76
2022/11/28 11:55:11;;;;;;;7.47;6.78;;;9.20;99.90;;;;;;4990995;28;20185;-77
2022/11/28 11:57:48;;;;;;;9.50;8.60;;;9.40;99.90;;;;;;5009755;28;20201;-76
2022/11/28 12:00:18;;;;;;;8.05;7.35;;;9.10;99.90;;;;;;4996721;28;20268;-78
2022/11/28 12:03:24;;;;;;;8.48;7.75;;;9.00;99.90;;;;;;4993585;28;20707;-75
2022/11/28 12:06:04;;;;;;;8.18;7.47;;;9.00;99.90;;;;;;4988857;28;20213;-77
2022/11/28 12:08:40;;;;;;;10.20;7.93;;;8.90;99.90;;;;;;4999405;28;20178;-77
2022/11/28 12:11:26;;;;;;;9.05;7.93;;;8.70;99.90;;;;;;4995114;28;20541;-78
2022/11/28 12:13:52;;;;;;;9.10;8.20;;;8.60;99.90;;;;;;4994444;28;20206;-76
2022/11/28 12:16:35;;;;;;;8.73;7.82;;;8.70;99.90;;;;;;4997412;28;20205;-76
2022/11/28 12:19:30;;;;;;;8.68;7.78;;;8.80;99.90;;;;;;5006075;28;20251;-77
2022/11/28 12:22:30;;;;;;;9.00;8.10;;;9.00;99.90;;;;;;4991485;28;20656;-76
2022/11/28 12:25:20;;;;;;;9.65;7.80;;;9.10;99.90;;;;;;4994856;28;20198;-77
2022/11/28 12:28:11;;;;;;;10.63;8.55;;;9.30;99.90;;;;;;4998521;28;20169;-76
2022/11/28 12:31:08;;;;;;;9.13;8.20;;;9.70;99.90;;;;;;4984687;28;20185;-77
2022/11/28 12:33:48;;;;;;;9.45;8.00;;;9.70;99.90;;;;;;4988397;28;20175;-77
2022/11/28 12:36:43;;;;;;;8.90;8.00;;;9.80;99.90;;;;;;4982022;28;20206;-77
2022/11/28 12:39:34;;;;;;;9.00;7.45;;;9.80;99.90;;;;;;4998444;28;20189;-76
2022/11/28 12:42:30;;;;;;;9.77;7.63;;;9.40;99.90;;;;;;4998223;28;20202;-76
2022/11/28 12:45:11;;;;;;;11.20;9.10;;;9.10;99.90;;;;;;4987989;28;20277;-76
2022/11/28 12:47:39;;;;;;;10.52;9.18;;;9.10;99.90;;;;;;4995713;28;21455;-76
2022/11/28 12:50:30;;;;;;;9.13;8.30;;;9.30;99.90;;;;;;4983439;28;20956;-76
2022/11/28 12:53:19;;;;;;;9.55;8.68;;;9.40;99.90;;;;;;4994823;28;20181;-76
2022/11/28 12:55:57;;;;;;;8.43;7.63;;;9.30;99.90;;;;;;4989054;28;20681;-77
2022/11/28 12:58:26;;;;;;;9.02;8.10;;;9.20;99.90;;;;;;4987380;28;20170;-76
2022/11/28 13:01:06;;;;;;;9.23;8.32;;;9.00;99.90;;;;;;4981034;28;20664;-77
2022/11/28 13:03:52;;;;;;;9.70;8.70;;;8.80;99.90;;;;;;4995744;28;20170;-77
2022/11/28 13:06:30;;;;;;;11.25;9.05;;;8.70;99.90;;;;;;4991047;28;20214;-77
2022/11/28 13:09:15;;;;;;;11.25;8.85;;;8.40;99.90;;;;;;4985715;28;20633;-79
2022/11/28 13:11:46;;;;;;;9.88;8.88;;;8.40;99.90;;;;;;4988052;28;20189;-76